sensor_id;sensor_type;location;lat;lon;timestamp;temperature;humidity
65559;DHT22;52203;51.998;5.140;2023-05-02T00:01:49;6.27;118.99
65559;DHT22;52203;51.998;5.140;2023-05-02T00:04:16;6.27;118.99
65559;DHT22;52203;51.998;5.140;2023-05-02T00:06:41;6.27;118.99
65559;DHT22;52203;51.998;5.140;2023-05-02T00:09:07;6.28;118.99
65559;DHT22;52203;51.998;5.140;2023-05-02T00:11:33;6.27;118.99
65559;DHT22;52203;51.998;5.140;2023-05-02T00:13:58;6.28;118.99
65559;DHT22;52203;51.998;5.140;2023-05-02T00:16:24;6.30;118.99
65559;DHT22;52203;51.998;5.140;2023-05-02T00:18:49;6.29;118.99
65559;DHT22;52203;51.998;5.140;2023-05-02T00:21:15;6.33;118.99
65559;DHT22;52203;51.998;5.140;2023-05-02T00:23:41;6.35;118.99
65559;DHT22;52203;51.998;5.140;2023-05-02T00:26:09;6.31;118.99
65559;DHT22;52203;51.998;5.140;2023-05-02T00:28:35;6.34;118.99
65559;DHT22;52203;51.998;5.140;2023-05-02T00:31:01;6.34;118.99
65559;DHT22;52203;51.998;5.140;2023-05-02T00:33:26;6.33;118.99
65559;DHT22;52203;51.998;5.140;2023-05-02T00:35:52;6.33;118.99
65559;DHT22;52203;51.998;5.140;2023-05-02T00:38:17;6.30;118.99
65559;DHT22;52203;51.998;5.140;2023-05-02T00:40:43;6.29;118.99
65559;DHT22;52203;51.998;5.140;2023-05-02T00:43:10;6.27;118.99
65559;DHT22;52203;51.998;5.140;2023-05-02T00:45:37;6.29;118.99
65559;DHT22;52203;51.998;5.140;2023-05-02T00:48:06;6.27;118.99
65559;DHT22;52203;51.998;5.140;2023-05-02T00:50:33;6.31;118.99
65559;DHT22;52203;51.998;5.140;2023-05-02T00:53:00;6.31;118.99
65559;DHT22;52203;51.998;5.140;2023-05-02T00:55:28;6.31;118.99
65559;DHT22;52203;51.998;5.140;2023-05-02T00:57:53;6.37;118.99
65559;DHT22;52203;51.998;5.140;2023-05-02T01:00:19;6.38;118.99
65559;DHT22;52203;51.998;5.140;2023-05-02T01:02:52;6.39;118.99
65559;DHT22;52203;51.998;5.140;2023-05-02T01:05:27;6.42;118.99
65559;DHT22;52203;51.998;5.140;2023-05-02T01:08:09;6.44;118.99
65559;DHT22;52203;51.998;5.140;2023-05-02T01:13:20;6.46;118.99
65559;DHT22;52203;51.998;5.140;2023-05-02T01:15:47;6.50;118.99
65559;DHT22;52203;51.998;5.140;2023-05-02T01:18:17;6.50;118.99
65559;DHT22;52203;51.998;5.140;2023-05-02T01:20:47;6.52;118.99
65559;DHT22;52203;51.998;5.140;2023-05-02T01:23:34;6.51;118.99
65559;DHT22;52203;51.998;5.140;2023-05-02T01:28:54;6.53;118.99
65559;DHT22;52203;51.998;5.140;2023-05-02T01:31:23;6.53;118.99
65559;DHT22;52203;51.998;5.140;2023-05-02T01:33:50;6.54;118.99
65559;DHT22;52203;51.998;5.140;2023-05-02T01:36:16;6.54;118.99
65559;DHT22;52203;51.998;5.140;2023-05-02T01:38:43;6.56;118.99
65559;DHT22;52203;51.998;5.140;2023-05-02T01:41:11;6.56;118.99
65559;DHT22;52203;51.998;5.140;2023-05-02T01:43:38;6.57;118.99
65559;DHT22;52203;51.998;5.140;2023-05-02T01:46:06;6.57;118.99
65559;DHT22;52203;51.998;5.140;2023-05-02T01:48:34;6.60;118.99
65559;DHT22;52203;51.998;5.140;2023-05-02T01:51:02;6.57;118.99
65559;DHT22;52203;51.998;5.140;2023-05-02T01:53:29;6.54;118.99
65559;DHT22;52203;51.998;5.140;2023-05-02T01:55:58;6.55;118.99
65559;DHT22;52203;51.998;5.140;2023-05-02T01:58:26;6.50;118.99
65559;DHT22;52203;51.998;5.140;2023-05-02T02:00:53;6.48;118.99
65559;DHT22;52203;51.998;5.140;2023-05-02T02:03:20;6.44;118.99
65559;DHT22;52203;51.998;5.140;2023-05-02T02:05:47;6.41;118.99
65559;DHT22;52203;51.998;5.140;2023-05-02T02:08:13;6.36;118.99
65559;DHT22;52203;51.998;5.140;2023-05-02T02:10:42;6.34;118.99
65559;DHT22;52203;51.998;5.140;2023-05-02T02:13:17;6.29;118.99
65559;DHT22;52203;51.998;5.140;2023-05-02T02:15:46;6.25;118.99
65559;DHT22;52203;51.998;5.140;2023-05-02T02:18:24;6.22;118.99
65559;DHT22;52203;51.998;5.140;2023-05-02T02:20:51;6.20;118.99
65559;DHT22;52203;51.998;5.140;2023-05-02T02:23:20;6.17;118.99
65559;DHT22;52203;51.998;5.140;2023-05-02T02:25:48;6.16;118.99
65559;DHT22;52203;51.998;5.140;2023-05-02T02:28:14;6.14;118.99
65559;DHT22;52203;51.998;5.140;2023-05-02T02:30:40;6.13;118.99
65559;DHT22;52203;51.998;5.140;2023-05-02T02:33:06;6.10;118.99
65559;DHT22;52203;51.998;5.140;2023-05-02T02:35:36;6.09;118.99
65559;DHT22;52203;51.998;5.140;2023-05-02T02:38:13;6.02;118.99
65559;DHT22;52203;51.998;5.140;2023-05-02T02:40:45;6.01;118.99
65559;DHT22;52203;51.998;5.140;2023-05-02T02:43:43;5.98;118.99
65559;DHT22;52203;51.998;5.140;2023-05-02T02:56:41;5.86;118.99
65559;DHT22;52203;51.998;5.140;2023-05-02T03:01:47;5.47;118.99
65559;DHT22;52203;51.998;5.140;2023-05-02T03:04:15;5.49;118.99
65559;DHT22;52203;51.998;5.140;2023-05-02T03:06:41;5.19;118.99
65559;DHT22;52203;51.998;5.140;2023-05-02T03:09:14;5.15;118.99
65559;DHT22;52203;51.998;5.140;2023-05-02T03:11:41;5.16;118.99
65559;DHT22;52203;51.998;5.140;2023-05-02T03:14:07;5.15;118.99
65559;DHT22;52203;51.998;5.140;2023-05-02T03:16:37;5.12;118.99
65559;DHT22;52203;51.998;5.140;2023-05-02T03:19:04;5.10;118.99
65559;DHT22;52203;51.998;5.140;2023-05-02T03:21:30;5.09;118.99
65559;DHT22;52203;51.998;5.140;2023-05-02T03:24:05;5.10;118.99
65559;DHT22;52203;51.998;5.140;2023-05-02T03:26:30;5.07;118.99
65559;DHT22;52203;51.998;5.140;2023-05-02T03:28:56;5.06;118.99
65559;DHT22;52203;51.998;5.140;2023-05-02T03:31:22;5.08;118.99
65559;DHT22;52203;51.998;5.140;2023-05-02T03:33:48;5.07;118.99
65559;DHT22;52203;51.998;5.140;2023-05-02T03:36:14;5.03;118.99
65559;DHT22;52203;51.998;5.140;2023-05-02T03:38:40;5.03;118.99
65559;DHT22;52203;51.998;5.140;2023-05-02T03:41:06;5.01;118.99
65559;DHT22;52203;51.998;5.140;2023-05-02T03:43:32;5.00;118.99
65559;DHT22;52203;51.998;5.140;2023-05-02T03:46:06;4.98;118.99
65559;DHT22;52203;51.998;5.140;2023-05-02T03:48:33;4.98;118.99
65559;DHT22;52203;51.998;5.140;2023-05-02T03:51:01;4.98;118.99
65559;DHT22;52203;51.998;5.140;2023-05-02T03:53:27;5.03;118.99
65559;DHT22;52203;51.998;5.140;2023-05-02T03:55:53;5.02;118.99
65559;DHT22;52203;51.998;5.140;2023-05-02T03:58:18;5.01;118.99
65559;DHT22;52203;51.998;5.140;2023-05-02T04:00:44;5.00;118.99
65559;DHT22;52203;51.998;5.140;2023-05-02T04:03:09;5.38;118.99
65559;DHT22;52203;51.998;5.140;2023-05-02T04:05:35;4.93;118.99
65559;DHT22;52203;51.998;5.140;2023-05-02T04:08:01;4.83;118.99
65559;DHT22;52203;51.998;5.140;2023-05-02T04:10:27;4.76;118.99
65559;DHT22;52203;51.998;5.140;2023-05-02T04:12:53;5.39;118.99
65559;DHT22;52203;51.998;5.140;2023-05-02T04:15:18;5.68;118.99
65559;DHT22;52203;51.998;5.140;2023-05-02T04:17:44;5.21;118.99
65559;DHT22;52203;51.998;5.140;2023-05-02T04:20:11;4.90;118.99
65559;DHT22;52203;51.998;5.140;2023-05-02T04:22:36;4.82;118.99
65559;DHT22;52203;51.998;5.140;2023-05-02T04:25:04;4.78;118.99
65559;DHT22;52203;51.998;5.140;2023-05-02T04:27:31;4.82;118.99
65559;DHT22;52203;51.998;5.140;2023-05-02T04:29:56;5.65;118.99
65559;DHT22;52203;51.998;5.140;2023-05-02T04:32:22;4.62;118.99
65559;DHT22;52203;51.998;5.140;2023-05-02T04:34:48;4.61;118.99
65559;DHT22;52203;51.998;5.140;2023-05-02T04:37:14;5.04;118.99
65559;DHT22;52203;51.998;5.140;2023-05-02T04:39:39;5.20;118.99
65559;DHT22;52203;51.998;5.140;2023-05-02T04:42:05;5.21;118.99
65559;DHT22;52203;51.998;5.140;2023-05-02T04:44:30;3.85;118.99
65559;DHT22;52203;51.998;5.140;2023-05-02T04:46:56;3.82;118.99
65559;DHT22;52203;51.998;5.140;2023-05-02T04:49:21;3.77;118.99
65559;DHT22;52203;51.998;5.140;2023-05-02T04:51:47;3.74;118.99
65559;DHT22;52203;51.998;5.140;2023-05-02T04:54:13;3.72;118.99
65559;DHT22;52203;51.998;5.140;2023-05-02T04:56:38;3.72;118.99
65559;DHT22;52203;51.998;5.140;2023-05-02T04:59:04;3.75;118.99
65559;DHT22;52203;51.998;5.140;2023-05-02T05:01:30;3.78;118.99
65559;DHT22;52203;51.998;5.140;2023-05-02T05:03:55;3.82;118.99
65559;DHT22;52203;51.998;5.140;2023-05-02T05:06:21;3.87;118.99
65559;DHT22;52203;51.998;5.140;2023-05-02T05:08:47;3.95;118.99
65559;DHT22;52203;51.998;5.140;2023-05-02T05:11:13;4.03;118.99
65559;DHT22;52203;51.998;5.140;2023-05-02T05:13:40;4.16;118.99
65559;DHT22;52203;51.998;5.140;2023-05-02T05:16:06;4.20;118.99
65559;DHT22;52203;51.998;5.140;2023-05-02T05:18:32;4.28;118.99
65559;DHT22;52203;51.998;5.140;2023-05-02T05:21:07;4.36;118.99
65559;DHT22;52203;51.998;5.140;2023-05-02T05:23:34;4.41;118.99
65559;DHT22;52203;51.998;5.140;2023-05-02T05:26:14;4.43;118.99
65559;DHT22;52203;51.998;5.140;2023-05-02T05:28:40;4.45;118.99
65559;DHT22;52203;51.998;5.140;2023-05-02T05:31:07;4.46;118.99
65559;DHT22;52203;51.998;5.140;2023-05-02T05:33:34;4.48;118.99
65559;DHT22;52203;51.998;5.140;2023-05-02T05:36:07;4.50;118.99
65559;DHT22;52203;51.998;5.140;2023-05-02T05:38:33;4.52;118.99
65559;DHT22;52203;51.998;5.140;2023-05-02T05:40:59;4.54;118.99
65559;DHT22;52203;51.998;5.140;2023-05-02T05:43:25;4.61;118.99
65559;DHT22;52203;51.998;5.140;2023-05-02T05:45:52;4.65;118.99
65559;DHT22;52203;51.998;5.140;2023-05-02T05:48:18;4.74;118.99
65559;DHT22;52203;51.998;5.140;2023-05-02T05:50:43;4.83;118.99
65559;DHT22;52203;51.998;5.140;2023-05-02T05:53:09;5.00;118.99
65559;DHT22;52203;51.998;5.140;2023-05-02T05:55:34;5.09;118.99
65559;DHT22;52203;51.998;5.140;2023-05-02T05:58:02;5.12;118.99
65559;DHT22;52203;51.998;5.140;2023-05-02T06:00:27;5.10;118.99
65559;DHT22;52203;51.998;5.140;2023-05-02T06:02:53;5.10;118.99
65559;DHT22;52203;51.998;5.140;2023-05-02T06:05:19;5.07;118.99
65559;DHT22;52203;51.998;5.140;2023-05-02T06:07:44;5.06;118.99
65559;DHT22;52203;51.998;5.140;2023-05-02T06:10:10;5.05;118.99
65559;DHT22;52203;51.998;5.140;2023-05-02T06:12:35;5.06;118.99
65559;DHT22;52203;51.998;5.140;2023-05-02T06:15:01;5.04;118.99
65559;DHT22;52203;51.998;5.140;2023-05-02T06:17:26;5.04;118.99
65559;DHT22;52203;51.998;5.140;2023-05-02T06:19:52;5.04;118.99
65559;DHT22;52203;51.998;5.140;2023-05-02T06:22:17;5.05;118.99
65559;DHT22;52203;51.998;5.140;2023-05-02T06:24:43;5.06;118.99
65559;DHT22;52203;51.998;5.140;2023-05-02T06:27:09;5.07;118.99
65559;DHT22;52203;51.998;5.140;2023-05-02T06:29:35;5.08;118.99
65559;DHT22;52203;51.998;5.140;2023-05-02T06:32:00;5.12;118.99
65559;DHT22;52203;51.998;5.140;2023-05-02T06:34:26;5.21;118.99
65559;DHT22;52203;51.998;5.140;2023-05-02T06:36:55;5.34;118.99
65559;DHT22;52203;51.998;5.140;2023-05-02T06:39:21;5.46;118.99
65559;DHT22;52203;51.998;5.140;2023-05-02T06:41:46;5.54;118.99
65559;DHT22;52203;51.998;5.140;2023-05-02T06:44:13;5.89;118.99
65559;DHT22;52203;51.998;5.140;2023-05-02T06:46:38;6.12;118.99
65559;DHT22;52203;51.998;5.140;2023-05-02T06:49:04;6.24;118.99
65559;DHT22;52203;51.998;5.140;2023-05-02T06:51:29;6.33;118.99
65559;DHT22;52203;51.998;5.140;2023-05-02T06:53:56;6.40;118.99
65559;DHT22;52203;51.998;5.140;2023-05-02T06:56:23;6.44;118.99
65559;DHT22;52203;51.998;5.140;2023-05-02T06:58:50;6.43;118.99
65559;DHT22;52203;51.998;5.140;2023-05-02T07:01:16;6.49;118.99
65559;DHT22;52203;51.998;5.140;2023-05-02T07:03:41;6.50;118.99
65559;DHT22;52203;51.998;5.140;2023-05-02T07:06:07;6.54;118.99
65559;DHT22;52203;51.998;5.140;2023-05-02T07:08:32;6.53;118.99
65559;DHT22;52203;51.998;5.140;2023-05-02T07:10:58;6.59;118.99
65559;DHT22;52203;51.998;5.140;2023-05-02T07:13:24;6.43;118.99
65559;DHT22;52203;51.998;5.140;2023-05-02T07:15:49;6.30;118.99
65559;DHT22;52203;51.998;5.140;2023-05-02T07:18:15;6.51;118.99
65559;DHT22;52203;51.998;5.140;2023-05-02T07:20:40;6.66;118.99
65559;DHT22;52203;51.998;5.140;2023-05-02T07:23:07;6.58;118.99
65559;DHT22;52203;51.998;5.140;2023-05-02T07:25:33;6.48;118.99
65559;DHT22;52203;51.998;5.140;2023-05-02T07:27:59;6.64;118.99
65559;DHT22;52203;51.998;5.140;2023-05-02T07:30:24;7.11;118.99
65559;DHT22;52203;51.998;5.140;2023-05-02T07:32:50;7.04;118.99
65559;DHT22;52203;51.998;5.140;2023-05-02T07:35:16;6.91;118.99
65559;DHT22;52203;51.998;5.140;2023-05-02T07:37:41;6.82;118.99
65559;DHT22;52203;51.998;5.140;2023-05-02T07:40:07;6.78;118.99
65559;DHT22;52203;51.998;5.140;2023-05-02T07:42:34;6.79;118.99
65559;DHT22;52203;51.998;5.140;2023-05-02T07:45:00;6.80;118.99
65559;DHT22;52203;51.998;5.140;2023-05-02T07:47:26;6.71;118.99
65559;DHT22;52203;51.998;5.140;2023-05-02T07:49:53;6.60;118.99
65559;DHT22;52203;51.998;5.140;2023-05-02T07:52:19;6.52;118.99
65559;DHT22;52203;51.998;5.140;2023-05-02T07:54:47;6.31;118.99
65559;DHT22;52203;51.998;5.140;2023-05-02T07:57:13;6.20;118.99
65559;DHT22;52203;51.998;5.140;2023-05-02T07:59:39;6.12;118.99
65559;DHT22;52203;51.998;5.140;2023-05-02T08:02:05;5.99;118.99
65559;DHT22;52203;51.998;5.140;2023-05-02T08:04:31;5.95;118.99
65559;DHT22;52203;51.998;5.140;2023-05-02T08:06:57;6.02;118.99
65559;DHT22;52203;51.998;5.140;2023-05-02T08:09:22;6.19;118.99
65559;DHT22;52203;51.998;5.140;2023-05-02T08:11:48;6.44;118.99
65559;DHT22;52203;51.998;5.140;2023-05-02T08:14:14;6.82;118.99
65559;DHT22;52203;51.998;5.140;2023-05-02T08:16:41;7.23;118.99
65559;DHT22;52203;51.998;5.140;2023-05-02T08:19:07;7.33;118.99
65559;DHT22;52203;51.998;5.140;2023-05-02T08:21:32;7.32;118.99
65559;DHT22;52203;51.998;5.140;2023-05-02T12:33:42;10.90;118.99
65559;DHT22;52203;51.998;5.140;2023-05-02T12:36:08;10.57;118.99
65559;DHT22;52203;51.998;5.140;2023-05-02T12:38:35;10.44;118.99
65559;DHT22;52203;51.998;5.140;2023-05-02T12:41:00;10.25;118.99
65559;DHT22;52203;51.998;5.140;2023-05-02T12:43:26;10.09;118.99
65559;DHT22;52203;51.998;5.140;2023-05-02T12:46:08;10.18;118.99
65559;DHT22;52203;51.998;5.140;2023-05-02T12:48:34;10.33;118.99
65559;DHT22;52203;51.998;5.140;2023-05-02T12:51:00;10.48;118.99
65559;DHT22;52203;51.998;5.140;2023-05-02T12:53:55;10.59;118.99
65559;DHT22;52203;51.998;5.140;2023-05-02T12:56:21;10.86;118.99
65559;DHT22;52203;51.998;5.140;2023-05-02T12:58:48;10.82;118.99
65559;DHT22;52203;51.998;5.140;2023-05-02T13:01:15;10.84;118.99
65559;DHT22;52203;51.998;5.140;2023-05-02T13:03:41;10.84;118.99
65559;DHT22;52203;51.998;5.140;2023-05-02T13:06:07;10.84;118.99
65559;DHT22;52203;51.998;5.140;2023-05-02T13:08:34;10.84;118.99
65559;DHT22;52203;51.998;5.140;2023-05-02T13:11:01;10.88;118.99
65559;DHT22;52203;51.998;5.140;2023-05-02T13:13:27;10.93;118.99
65559;DHT22;52203;51.998;5.140;2023-05-02T13:15:54;10.86;118.99
65559;DHT22;52203;51.998;5.140;2023-05-02T13:18:19;10.63;118.99
65559;DHT22;52203;51.998;5.140;2023-05-02T13:20:45;10.57;118.99
65559;DHT22;52203;51.998;5.140;2023-05-02T13:23:10;10.41;118.99
65559;DHT22;52203;51.998;5.140;2023-05-02T13:25:36;10.38;118.99
65559;DHT22;52203;51.998;5.140;2023-05-02T13:28:01;10.50;118.99
65559;DHT22;52203;51.998;5.140;2023-05-02T13:30:27;10.46;118.99
65559;DHT22;52203;51.998;5.140;2023-05-02T13:32:52;10.54;118.99
65559;DHT22;52203;51.998;5.140;2023-05-02T13:35:18;10.62;118.99
65559;DHT22;52203;51.998;5.140;2023-05-02T13:37:43;10.65;118.99
65559;DHT22;52203;51.998;5.140;2023-05-02T13:40:09;10.65;118.99
65559;DHT22;52203;51.998;5.140;2023-05-02T13:42:36;10.50;118.99
65559;DHT22;52203;51.998;5.140;2023-05-02T13:45:01;10.39;118.99
65559;DHT22;52203;51.998;5.140;2023-05-02T13:47:30;10.30;118.99
65559;DHT22;52203;51.998;5.140;2023-05-02T13:49:56;10.22;118.99
65559;DHT22;52203;51.998;5.140;2023-05-02T13:52:21;10.08;118.99
65559;DHT22;52203;51.998;5.140;2023-05-02T13:54:47;9.97;118.99
65559;DHT22;52203;51.998;5.140;2023-05-02T13:57:12;9.76;118.99
65559;DHT22;52203;51.998;5.140;2023-05-02T13:59:38;9.62;118.99
65559;DHT22;52203;51.998;5.140;2023-05-02T14:02:03;9.51;118.99
65559;DHT22;52203;51.998;5.140;2023-05-02T14:04:30;9.34;118.99
65559;DHT22;52203;51.998;5.140;2023-05-02T14:06:55;9.18;118.99
65559;DHT22;52203;51.998;5.140;2023-05-02T14:09:21;9.15;118.99
65559;DHT22;52203;51.998;5.140;2023-05-02T14:11:46;9.16;118.99
65559;DHT22;52203;51.998;5.140;2023-05-02T14:14:12;9.16;118.99
65559;DHT22;52203;51.998;5.140;2023-05-02T14:16:39;9.07;118.99
65559;DHT22;52203;51.998;5.140;2023-05-02T14:19:04;9.08;118.99
65559;DHT22;52203;51.998;5.140;2023-05-02T14:21:33;9.08;118.99
65559;DHT22;52203;51.998;5.140;2023-05-02T14:23:59;8.95;118.99
65559;DHT22;52203;51.998;5.140;2023-05-02T14:26:25;8.93;118.99
65559;DHT22;52203;51.998;5.140;2023-05-02T14:28:51;8.85;118.99
65559;DHT22;52203;51.998;5.140;2023-05-02T14:31:17;8.76;118.99
65559;DHT22;52203;51.998;5.140;2023-05-02T14:33:42;8.63;118.99
65559;DHT22;52203;51.998;5.140;2023-05-02T14:36:08;8.59;118.99
65559;DHT22;52203;51.998;5.140;2023-05-02T14:38:33;8.62;118.99
65559;DHT22;52203;51.998;5.140;2023-05-02T14:40:59;8.52;118.99
65559;DHT22;52203;51.998;5.140;2023-05-02T14:43:27;8.42;118.99
65559;DHT22;52203;51.998;5.140;2023-05-02T14:45:52;8.36;118.99
65559;DHT22;52203;51.998;5.140;2023-05-02T14:48:18;8.34;118.99
65559;DHT22;52203;51.998;5.140;2023-05-02T14:50:44;8.26;118.99
65559;DHT22;52203;51.998;5.140;2023-05-02T14:53:10;8.19;118.99
65559;DHT22;52203;51.998;5.140;2023-05-02T14:55:39;8.15;118.99
65559;DHT22;52203;51.998;5.140;2023-05-02T14:58:06;8.09;118.99
65559;DHT22;52203;51.998;5.140;2023-05-02T15:00:35;8.01;118.99
65559;DHT22;52203;51.998;5.140;2023-05-02T15:03:05;7.93;118.99
65559;DHT22;52203;51.998;5.140;2023-05-02T15:05:31;7.86;118.99
65559;DHT22;52203;51.998;5.140;2023-05-02T15:07:57;7.72;118.99
65559;DHT22;52203;51.998;5.140;2023-05-02T15:10:22;7.67;118.99
65559;DHT22;52203;51.998;5.140;2023-05-02T15:12:47;7.59;118.99
65559;DHT22;52203;51.998;5.140;2023-05-02T15:15:17;7.52;118.99
65559;DHT22;52203;51.998;5.140;2023-05-02T15:17:43;7.43;118.99
65559;DHT22;52203;51.998;5.140;2023-05-02T15:20:09;7.39;118.99
65559;DHT22;52203;51.998;5.140;2023-05-02T15:22:35;7.42;118.99
65559;DHT22;52203;51.998;5.140;2023-05-02T15:25:01;7.40;118.99
65559;DHT22;52203;51.998;5.140;2023-05-02T15:27:32;7.37;118.99
65559;DHT22;52203;51.998;5.140;2023-05-02T15:29:57;7.30;118.99
65559;DHT22;52203;51.998;5.140;2023-05-02T15:32:23;7.23;118.99
65559;DHT22;52203;51.998;5.140;2023-05-02T15:34:48;7.14;118.99
65559;DHT22;52203;51.998;5.140;2023-05-02T15:37:14;7.10;118.99
65559;DHT22;52203;51.998;5.140;2023-05-02T15:39:39;7.05;118.99
65559;DHT22;52203;51.998;5.140;2023-05-02T15:42:05;7.01;118.99
65559;DHT22;52203;51.998;5.140;2023-05-02T15:44:34;7.04;118.99
65559;DHT22;52203;51.998;5.140;2023-05-02T15:47:03;7.04;118.99
65559;DHT22;52203;51.998;5.140;2023-05-02T15:49:29;7.03;118.99
65559;DHT22;52203;51.998;5.140;2023-05-02T15:51:58;6.97;118.99
65559;DHT22;52203;51.998;5.140;2023-05-02T15:54:23;6.93;118.99
65559;DHT22;52203;51.998;5.140;2023-05-02T15:56:49;6.87;118.99
65559;DHT22;52203;51.998;5.140;2023-05-02T15:59:14;6.87;118.99
65559;DHT22;52203;51.998;5.140;2023-05-02T16:01:40;6.88;118.99
65559;DHT22;52203;51.998;5.140;2023-05-02T16:04:05;6.88;118.99
65559;DHT22;52203;51.998;5.140;2023-05-02T16:06:33;6.82;118.99
65559;DHT22;52203;51.998;5.140;2023-05-02T16:08:59;6.79;118.99
65559;DHT22;52203;51.998;5.140;2023-05-02T16:11:24;6.79;118.99
65559;DHT22;52203;51.998;5.140;2023-05-02T16:13:50;6.78;118.99
65559;DHT22;52203;51.998;5.140;2023-05-02T16:16:16;6.75;118.99
65559;DHT22;52203;51.998;5.140;2023-05-02T16:18:42;6.72;118.99
65559;DHT22;52203;51.998;5.140;2023-05-02T16:21:07;6.66;118.99
65559;DHT22;52203;51.998;5.140;2023-05-02T16:23:33;6.63;118.99
65559;DHT22;52203;51.998;5.140;2023-05-02T16:25:59;6.55;118.99
65559;DHT22;52203;51.998;5.140;2023-05-02T16:28:25;6.48;118.99
65559;DHT22;52203;51.998;5.140;2023-05-02T16:30:53;6.41;118.99
65559;DHT22;52203;51.998;5.140;2023-05-02T16:33:20;6.34;118.99
65559;DHT22;52203;51.998;5.140;2023-05-02T16:35:46;6.30;118.99
65559;DHT22;52203;51.998;5.140;2023-05-02T16:38:12;6.27;118.99
65559;DHT22;52203;51.998;5.140;2023-05-02T16:40:38;6.25;118.99
65559;DHT22;52203;51.998;5.140;2023-05-02T16:43:04;6.21;118.99
65559;DHT22;52203;51.998;5.140;2023-05-02T16:45:29;6.21;118.99
65559;DHT22;52203;51.998;5.140;2023-05-02T16:47:55;6.16;118.99
65559;DHT22;52203;51.998;5.140;2023-05-02T16:50:22;6.13;118.99
65559;DHT22;52203;51.998;5.140;2023-05-02T16:52:47;6.11;118.99
65559;DHT22;52203;51.998;5.140;2023-05-02T16:55:13;6.07;118.99
65559;DHT22;52203;51.998;5.140;2023-05-02T16:57:38;6.04;118.99
65559;DHT22;52203;51.998;5.140;2023-05-02T17:00:04;6.01;118.99
65559;DHT22;52203;51.998;5.140;2023-05-02T17:02:32;5.95;118.99
65559;DHT22;52203;51.998;5.140;2023-05-02T17:04:57;5.90;118.99
65559;DHT22;52203;51.998;5.140;2023-05-02T17:07:23;5.84;118.99
65559;DHT22;52203;51.998;5.140;2023-05-02T17:09:48;5.84;118.99
65559;DHT22;52203;51.998;5.140;2023-05-02T17:12:14;5.81;118.99
65559;DHT22;52203;51.998;5.140;2023-05-02T17:14:46;5.76;118.99
65559;DHT22;52203;51.998;5.140;2023-05-02T17:17:12;5.75;118.99
65559;DHT22;52203;51.998;5.140;2023-05-02T17:19:37;5.69;118.99
65559;DHT22;52203;51.998;5.140;2023-05-02T17:22:03;5.67;118.99
65559;DHT22;52203;51.998;5.140;2023-05-02T17:24:29;5.62;118.99
65559;DHT22;52203;51.998;5.140;2023-05-02T17:26:55;5.56;118.99
65559;DHT22;52203;51.998;5.140;2023-05-02T17:29:22;5.51;118.99
65559;DHT22;52203;51.998;5.140;2023-05-02T17:31:48;5.49;118.99
65559;DHT22;52203;51.998;5.140;2023-05-02T17:34:13;5.42;118.99
65559;DHT22;52203;51.998;5.140;2023-05-02T17:36:39;5.37;118.99
65559;DHT22;52203;51.998;5.140;2023-05-02T17:39:08;5.32;118.99
65559;DHT22;52203;51.998;5.140;2023-05-02T17:41:35;5.27;118.99
65559;DHT22;52203;51.998;5.140;2023-05-02T17:44:00;5.26;118.99
65559;DHT22;52203;51.998;5.140;2023-05-02T17:46:28;5.26;118.99
65559;DHT22;52203;51.998;5.140;2023-05-02T17:48:55;5.18;118.99
65559;DHT22;52203;51.998;5.140;2023-05-02T17:51:20;5.15;118.99
65559;DHT22;52203;51.998;5.140;2023-05-02T17:53:46;5.07;118.99
65559;DHT22;52203;51.998;5.140;2023-05-02T17:56:12;5.01;118.99
65559;DHT22;52203;51.998;5.140;2023-05-02T17:58:40;4.94;118.99
65559;DHT22;52203;51.998;5.140;2023-05-02T18:01:09;4.87;118.99
65559;DHT22;52203;51.998;5.140;2023-05-02T18:03:35;4.81;118.99
65559;DHT22;52203;51.998;5.140;2023-05-02T18:06:01;4.76;118.99
65559;DHT22;52203;51.998;5.140;2023-05-02T18:08:27;4.77;118.99
65559;DHT22;52203;51.998;5.140;2023-05-02T18:10:55;4.74;118.99
65559;DHT22;52203;51.998;5.140;2023-05-02T18:13:22;4.74;118.99
65559;DHT22;52203;51.998;5.140;2023-05-02T18:15:55;4.62;118.99
65559;DHT22;52203;51.998;5.140;2023-05-02T18:18:21;4.53;118.99
65559;DHT22;52203;51.998;5.140;2023-05-02T18:20:46;4.48;118.99
65559;DHT22;52203;51.998;5.140;2023-05-02T18:23:12;4.48;118.99
65559;DHT22;52203;51.998;5.140;2023-05-02T18:25:37;4.43;118.99
65559;DHT22;52203;51.998;5.140;2023-05-02T18:28:03;4.33;118.99
65559;DHT22;52203;51.998;5.140;2023-05-02T18:30:28;4.29;118.99
65559;DHT22;52203;51.998;5.140;2023-05-02T18:32:54;4.29;118.99
65559;DHT22;52203;51.998;5.140;2023-05-02T18:35:19;4.22;118.99
65559;DHT22;52203;51.998;5.140;2023-05-02T18:37:45;4.20;118.99
65559;DHT22;52203;51.998;5.140;2023-05-02T18:40:11;4.13;118.99
65559;DHT22;52203;51.998;5.140;2023-05-02T18:42:37;4.09;118.99
65559;DHT22;52203;51.998;5.140;2023-05-02T18:45:02;4.05;118.99
65559;DHT22;52203;51.998;5.140;2023-05-02T18:47:29;3.99;118.99
65559;DHT22;52203;51.998;5.140;2023-05-02T18:49:56;3.95;118.99
65559;DHT22;52203;51.998;5.140;2023-05-02T18:52:22;3.87;118.99
65559;DHT22;52203;51.998;5.140;2023-05-02T18:54:49;3.85;118.99
65559;DHT22;52203;51.998;5.140;2023-05-02T18:57:14;3.80;118.99
65559;DHT22;52203;51.998;5.140;2023-05-02T18:59:40;3.68;118.99
65559;DHT22;52203;51.998;5.140;2023-05-02T19:02:05;3.59;118.99
65559;DHT22;52203;51.998;5.140;2023-05-02T19:04:31;3.50;118.99
65559;DHT22;52203;51.998;5.140;2023-05-02T19:06:57;3.46;118.99
65559;DHT22;52203;51.998;5.140;2023-05-02T19:09:22;3.36;118.99
65559;DHT22;52203;51.998;5.140;2023-05-02T19:11:48;3.33;118.99
65559;DHT22;52203;51.998;5.140;2023-05-02T19:14:13;3.29;118.99
65559;DHT22;52203;51.998;5.140;2023-05-02T19:16:39;3.26;118.99
65559;DHT22;52203;51.998;5.140;2023-05-02T19:19:05;3.25;118.99
65559;DHT22;52203;51.998;5.140;2023-05-02T19:21:31;3.17;118.99
65559;DHT22;52203;51.998;5.140;2023-05-02T19:24:01;3.21;118.99
65559;DHT22;52203;51.998;5.140;2023-05-02T19:26:27;3.18;118.99
65559;DHT22;52203;51.998;5.140;2023-05-02T19:28:52;3.28;118.99
65559;DHT22;52203;51.998;5.140;2023-05-02T19:31:19;2.95;118.99
65559;DHT22;52203;51.998;5.140;2023-05-02T19:33:51;2.88;118.99
65559;DHT22;52203;51.998;5.140;2023-05-02T19:36:18;2.90;118.99
65559;DHT22;52203;51.998;5.140;2023-05-02T19:38:46;2.83;118.99
65559;DHT22;52203;51.998;5.140;2023-05-02T19:41:12;2.82;118.99
65559;DHT22;52203;51.998;5.140;2023-05-02T19:43:38;3.00;118.99
65559;DHT22;52203;51.998;5.140;2023-05-02T19:46:03;3.32;118.99
65559;DHT22;52203;51.998;5.140;2023-05-02T19:48:29;3.32;118.99
65559;DHT22;52203;51.998;5.140;2023-05-02T19:50:54;3.12;118.99
65559;DHT22;52203;51.998;5.140;2023-05-02T19:53:23;3.09;118.99
65559;DHT22;52203;51.998;5.140;2023-05-02T19:55:49;3.11;118.99